sensor_id;sensor_type;location;lat;lon;timestamp;temperature;humidity
11617;DHT22;5864;52.998;9.068;2023-03-31T00:02:38;11.30;99.90
11617;DHT22;5864;52.998;9.068;2023-03-31T00:05:25;11.30;99.90
11617;DHT22;5864;52.998;9.068;2023-03-31T00:08:11;11.30;99.90
11617;DHT22;5864;52.998;9.068;2023-03-31T00:10:58;11.30;99.90
11617;DHT22;5864;52.998;9.068;2023-03-31T00:13:45;11.30;99.90
11617;DHT22;5864;52.998;9.068;2023-03-31T00:16:33;11.30;99.90
11617;DHT22;5864;52.998;9.068;2023-03-31T00:19:19;11.30;99.90
11617;DHT22;5864;52.998;9.068;2023-03-31T00:22:05;11.30;99.90
11617;DHT22;5864;52.998;9.068;2023-03-31T00:24:51;11.40;99.90
11617;DHT22;5864;52.998;9.068;2023-03-31T00:27:37;11.40;99.90
11617;DHT22;5864;52.998;9.068;2023-03-31T00:30:23;11.30;99.90
11617;DHT22;5864;52.998;9.068;2023-03-31T00:33:10;11.30;99.90
11617;DHT22;5864;52.998;9.068;2023-03-31T00:35:56;11.40;99.90
11617;DHT22;5864;52.998;9.068;2023-03-31T00:38:45;11.40;99.90
11617;DHT22;5864;52.998;9.068;2023-03-31T00:41:31;11.40;99.90
11617;DHT22;5864;52.998;9.068;2023-03-31T00:44:18;11.40;99.90
11617;DHT22;5864;52.998;9.068;2023-03-31T00:47:11;11.40;99.90
11617;DHT22;5864;52.998;9.068;2023-03-31T00:50:00;11.40;99.90
11617;DHT22;5864;52.998;9.068;2023-03-31T00:52:47;11.40;99.90
11617;DHT22;5864;52.998;9.068;2023-03-31T00:55:38;11.40;99.90
11617;DHT22;5864;52.998;9.068;2023-03-31T00:58:25;11.40;99.90
11617;DHT22;5864;52.998;9.068;2023-03-31T01:01:13;11.40;99.90
11617;DHT22;5864;52.998;9.068;2023-03-31T01:04:00;11.40;99.90
11617;DHT22;5864;52.998;9.068;2023-03-31T01:06:52;11.50;99.90
11617;DHT22;5864;52.998;9.068;2023-03-31T01:09:40;11.50;99.90
11617;DHT22;5864;52.998;9.068;2023-03-31T01:12:26;11.50;99.90
11617;DHT22;5864;52.998;9.068;2023-03-31T01:15:12;12.70;99.90
11617;DHT22;5864;52.998;9.068;2023-03-31T01:17:58;11.50;99.90
11617;DHT22;5864;52.998;9.068;2023-03-31T01:20:57;11.50;99.90
11617;DHT22;5864;52.998;9.068;2023-03-31T01:27:20;11.50;99.90
11617;DHT22;5864;52.998;9.068;2023-03-31T01:30:40;11.50;99.90
11617;DHT22;5864;52.998;9.068;2023-03-31T01:43:38;11.30;99.90
11617;DHT22;5864;52.998;9.068;2023-03-31T01:46:28;11.50;99.90
11617;DHT22;5864;52.998;9.068;2023-03-31T01:49:19;11.40;99.90
11617;DHT22;5864;52.998;9.068;2023-03-31T01:52:10;11.30;99.90
11617;DHT22;5864;52.998;9.068;2023-03-31T01:55:03;11.30;99.90
11617;DHT22;5864;52.998;9.068;2023-03-31T01:57:53;11.30;99.90
11617;DHT22;5864;52.998;9.068;2023-03-31T02:00:44;11.30;99.90
11617;DHT22;5864;52.998;9.068;2023-03-31T02:03:37;11.20;99.90
11617;DHT22;5864;52.998;9.068;2023-03-31T02:06:27;11.30;99.90
11617;DHT22;5864;52.998;9.068;2023-03-31T02:09:17;11.30;99.90
11617;DHT22;5864;52.998;9.068;2023-03-31T02:12:07;11.20;99.90
11617;DHT22;5864;52.998;9.068;2023-03-31T02:14:55;11.40;99.90
11617;DHT22;5864;52.998;9.068;2023-03-31T02:17:44;11.20;99.90
11617;DHT22;5864;52.998;9.068;2023-03-31T02:20:32;11.10;99.90
11617;DHT22;5864;52.998;9.068;2023-03-31T02:23:21;11.10;99.90
11617;DHT22;5864;52.998;9.068;2023-03-31T02:26:13;12.50;99.90
11617;DHT22;5864;52.998;9.068;2023-03-31T02:29:00;11.20;99.90
11617;DHT22;5864;52.998;9.068;2023-03-31T02:31:51;11.20;99.90
11617;DHT22;5864;52.998;9.068;2023-03-31T02:34:38;11.10;99.90
11617;DHT22;5864;52.998;9.068;2023-03-31T02:37:25;11.10;99.90
11617;DHT22;5864;52.998;9.068;2023-03-31T02:40:15;11.10;99.90
11617;DHT22;5864;52.998;9.068;2023-03-31T02:43:01;11.10;99.90
11617;DHT22;5864;52.998;9.068;2023-03-31T02:45:48;11.10;99.90
11617;DHT22;5864;52.998;9.068;2023-03-31T02:48:37;11.10;99.90
11617;DHT22;5864;52.998;9.068;2023-03-31T02:51:51;12.40;99.90
11617;DHT22;5864;52.998;9.068;2023-03-31T02:58:30;11.10;99.90
11617;DHT22;5864;52.998;9.068;2023-03-31T03:01:51;11.10;99.90
11617;DHT22;5864;52.998;9.068;2023-03-31T03:04:56;11.10;99.90
11617;DHT22;5864;52.998;9.068;2023-03-31T03:07:48;11.10;99.90
11617;DHT22;5864;52.998;9.068;2023-03-31T03:10:43;11.00;99.90
11617;DHT22;5864;52.998;9.068;2023-03-31T03:13:38;11.10;99.90
11617;DHT22;5864;52.998;9.068;2023-03-31T03:16:29;11.00;99.90
11617;DHT22;5864;52.998;9.068;2023-03-31T03:19:20;11.00;99.90
11617;DHT22;5864;52.998;9.068;2023-03-31T03:22:08;11.00;99.90
11617;DHT22;5864;52.998;9.068;2023-03-31T03:24:54;11.00;99.90
11617;DHT22;5864;52.998;9.068;2023-03-31T03:27:40;11.00;99.90
11617;DHT22;5864;52.998;9.068;2023-03-31T03:30:26;11.00;99.90
11617;DHT22;5864;52.998;9.068;2023-03-31T03:33:12;11.00;99.90
11617;DHT22;5864;52.998;9.068;2023-03-31T03:36:00;10.90;99.90
11617;DHT22;5864;52.998;9.068;2023-03-31T03:38:48;10.90;99.90
11617;DHT22;5864;52.998;9.068;2023-03-31T03:41:34;10.90;99.90
11617;DHT22;5864;52.998;9.068;2023-03-31T03:44:19;11.00;99.90
11617;DHT22;5864;52.998;9.068;2023-03-31T03:47:05;10.90;99.90
11617;DHT22;5864;52.998;9.068;2023-03-31T03:49:51;11.30;99.90
11617;DHT22;5864;52.998;9.068;2023-03-31T03:52:37;10.90;99.90
11617;DHT22;5864;52.998;9.068;2023-03-31T03:55:25;10.90;99.90
11617;DHT22;5864;52.998;9.068;2023-03-31T03:58:10;10.90;99.90
11617;DHT22;5864;52.998;9.068;2023-03-31T04:00:56;10.90;99.90
11617;DHT22;5864;52.998;9.068;2023-03-31T04:03:41;10.90;99.90
11617;DHT22;5864;52.998;9.068;2023-03-31T04:06:27;10.90;99.90
11617;DHT22;5864;52.998;9.068;2023-03-31T04:09:13;11.00;99.90
11617;DHT22;5864;52.998;9.068;2023-03-31T04:12:00;12.40;99.90
11617;DHT22;5864;52.998;9.068;2023-03-31T04:14:46;13.20;99.90
11617;DHT22;5864;52.998;9.068;2023-03-31T04:17:33;10.80;99.90
11617;DHT22;5864;52.998;9.068;2023-03-31T04:20:20;10.80;99.90
11617;DHT22;5864;52.998;9.068;2023-03-31T04:23:06;10.70;99.90
11617;DHT22;5864;52.998;9.068;2023-03-31T04:25:52;10.70;99.90
11617;DHT22;5864;52.998;9.068;2023-03-31T04:28:40;10.80;99.90
11617;DHT22;5864;52.998;9.068;2023-03-31T04:31:26;10.60;99.90
11617;DHT22;5864;52.998;9.068;2023-03-31T04:34:14;10.60;99.90
11617;DHT22;5864;52.998;9.068;2023-03-31T04:37:01;10.70;99.90
11617;DHT22;5864;52.998;9.068;2023-03-31T04:39:47;10.60;99.90
11617;DHT22;5864;52.998;9.068;2023-03-31T04:42:33;10.50;99.90
11617;DHT22;5864;52.998;9.068;2023-03-31T04:45:20;10.40;99.90
11617;DHT22;5864;52.998;9.068;2023-03-31T04:48:07;10.40;99.90
11617;DHT22;5864;52.998;9.068;2023-03-31T04:50:53;10.40;99.90
11617;DHT22;5864;52.998;9.068;2023-03-31T04:53:39;10.40;99.90
11617;DHT22;5864;52.998;9.068;2023-03-31T04:56:24;10.40;99.90
11617;DHT22;5864;52.998;9.068;2023-03-31T04:59:10;11.20;99.90
11617;DHT22;5864;52.998;9.068;2023-03-31T05:01:57;10.40;99.90
11617;DHT22;5864;52.998;9.068;2023-03-31T05:04:42;10.40;99.90
11617;DHT22;5864;52.998;9.068;2023-03-31T05:07:29;10.20;99.90
11617;DHT22;5864;52.998;9.068;2023-03-31T05:10:16;10.10;99.90
11617;DHT22;5864;52.998;9.068;2023-03-31T05:13:02;10.10;99.90
11617;DHT22;5864;52.998;9.068;2023-03-31T05:15:47;10.10;99.90
11617;DHT22;5864;52.998;9.068;2023-03-31T05:18:36;10.10;99.90
11617;DHT22;5864;52.998;9.068;2023-03-31T05:21:21;10.00;99.90
11617;DHT22;5864;52.998;9.068;2023-03-31T05:24:07;10.00;99.90
11617;DHT22;5864;52.998;9.068;2023-03-31T05:26:53;10.00;99.90
11617;DHT22;5864;52.998;9.068;2023-03-31T05:29:39;10.00;99.90
11617;DHT22;5864;52.998;9.068;2023-03-31T05:32:27;12.30;99.90
11617;DHT22;5864;52.998;9.068;2023-03-31T05:35:14;10.00;99.90
11617;DHT22;5864;52.998;9.068;2023-03-31T05:38:00;10.00;99.90
11617;DHT22;5864;52.998;9.068;2023-03-31T05:40:46;10.00;99.90
11617;DHT22;5864;52.998;9.068;2023-03-31T05:43:31;10.00;99.90
11617;DHT22;5864;52.998;9.068;2023-03-31T05:46:17;10.30;99.90
11617;DHT22;5864;52.998;9.068;2023-03-31T05:49:03;10.00;99.90
11617;DHT22;5864;52.998;9.068;2023-03-31T05:51:50;10.00;99.90
11617;DHT22;5864;52.998;9.068;2023-03-31T05:54:36;10.00;99.90
11617;DHT22;5864;52.998;9.068;2023-03-31T05:57:22;10.00;99.90
11617;DHT22;5864;52.998;9.068;2023-03-31T06:00:08;10.00;99.90
11617;DHT22;5864;52.998;9.068;2023-03-31T06:03:16;10.00;99.90
11617;DHT22;5864;52.998;9.068;2023-03-31T06:06:02;10.00;99.90
11617;DHT22;5864;52.998;9.068;2023-03-31T06:08:48;10.00;99.90
11617;DHT22;5864;52.998;9.068;2023-03-31T06:11:33;10.00;99.90
11617;DHT22;5864;52.998;9.068;2023-03-31T06:14:19;10.00;99.90
11617;DHT22;5864;52.998;9.068;2023-03-31T06:17:05;10.60;99.90
11617;DHT22;5864;52.998;9.068;2023-03-31T06:19:52;10.00;99.90
11617;DHT22;5864;52.998;9.068;2023-03-31T06:22:38;10.10;99.90
11617;DHT22;5864;52.998;9.068;2023-03-31T06:25:24;10.40;99.90
11617;DHT22;5864;52.998;9.068;2023-03-31T06:28:09;10.20;99.90
11617;DHT22;5864;52.998;9.068;2023-03-31T06:31:02;10.30;99.90
11617;DHT22;5864;52.998;9.068;2023-03-31T06:33:48;11.80;99.90
11617;DHT22;5864;52.998;9.068;2023-03-31T06:36:36;10.20;99.90
11617;DHT22;5864;52.998;9.068;2023-03-31T06:39:22;10.30;99.90
11617;DHT22;5864;52.998;9.068;2023-03-31T06:42:09;10.40;99.90
11617;DHT22;5864;52.998;9.068;2023-03-31T06:44:55;10.40;99.90
11617;DHT22;5864;52.998;9.068;2023-03-31T06:47:41;10.40;99.90
11617;DHT22;5864;52.998;9.068;2023-03-31T06:50:26;10.40;99.90
11617;DHT22;5864;52.998;9.068;2023-03-31T06:53:13;10.30;99.90
11617;DHT22;5864;52.998;9.068;2023-03-31T06:56:00;10.30;99.90
11617;DHT22;5864;52.998;9.068;2023-03-31T06:58:46;10.30;99.90
11617;DHT22;5864;52.998;9.068;2023-03-31T07:01:31;10.30;99.90
11617;DHT22;5864;52.998;9.068;2023-03-31T07:04:20;10.30;99.90
11617;DHT22;5864;52.998;9.068;2023-03-31T07:07:06;10.30;99.90
11617;DHT22;5864;52.998;9.068;2023-03-31T07:09:52;10.40;99.90
11617;DHT22;5864;52.998;9.068;2023-03-31T07:12:38;10.40;99.90
11617;DHT22;5864;52.998;9.068;2023-03-31T07:15:24;10.40;99.90
11617;DHT22;5864;52.998;9.068;2023-03-31T07:18:11;10.30;99.90
11617;DHT22;5864;52.998;9.068;2023-03-31T07:20:58;10.40;99.90
11617;DHT22;5864;52.998;9.068;2023-03-31T07:23:44;10.80;99.90
11617;DHT22;5864;52.998;9.068;2023-03-31T07:26:31;13.10;99.90
11617;DHT22;5864;52.998;9.068;2023-03-31T07:29:17;10.50;99.90
11617;DHT22;5864;52.998;9.068;2023-03-31T07:32:03;10.40;99.90
11617;DHT22;5864;52.998;9.068;2023-03-31T07:34:49;10.50;99.90
11617;DHT22;5864;52.998;9.068;2023-03-31T07:37:35;10.60;99.90
11617;DHT22;5864;52.998;9.068;2023-03-31T07:40:23;10.60;99.90
11617;DHT22;5864;52.998;9.068;2023-03-31T07:43:11;10.60;99.90
11617;DHT22;5864;52.998;9.068;2023-03-31T07:45:56;10.60;99.90
11617;DHT22;5864;52.998;9.068;2023-03-31T07:48:42;10.60;99.90
11617;DHT22;5864;52.998;9.068;2023-03-31T07:51:29;12.10;99.90
11617;DHT22;5864;52.998;9.068;2023-03-31T07:54:15;13.50;99.90
11617;DHT22;5864;52.998;9.068;2023-03-31T07:57:01;11.40;99.90
11617;DHT22;5864;52.998;9.068;2023-03-31T07:59:50;10.50;99.90
11617;DHT22;5864;52.998;9.068;2023-03-31T08:02:35;10.50;99.90
11617;DHT22;5864;52.998;9.068;2023-03-31T08:05:21;11.80;99.90
11617;DHT22;5864;52.998;9.068;2023-03-31T08:08:06;11.40;99.90
11617;DHT22;5864;52.998;9.068;2023-03-31T08:10:52;10.60;99.90
11617;DHT22;5864;52.998;9.068;2023-03-31T08:13:38;10.60;99.90
11617;DHT22;5864;52.998;9.068;2023-03-31T08:16:25;10.70;99.90
11617;DHT22;5864;52.998;9.068;2023-03-31T08:19:10;10.70;99.90
11617;DHT22;5864;52.998;9.068;2023-03-31T08:21:56;10.60;99.90
11617;DHT22;5864;52.998;9.068;2023-03-31T08:24:42;10.70;99.90
11617;DHT22;5864;52.998;9.068;2023-03-31T08:27:28;10.70;99.90
11617;DHT22;5864;52.998;9.068;2023-03-31T08:30:18;10.70;99.90
11617;DHT22;5864;52.998;9.068;2023-03-31T08:33:06;10.70;99.90
11617;DHT22;5864;52.998;9.068;2023-03-31T08:35:52;10.70;99.90
11617;DHT22;5864;52.998;9.068;2023-03-31T08:38:39;10.70;99.90
11617;DHT22;5864;52.998;9.068;2023-03-31T08:41:35;10.80;99.90
11617;DHT22;5864;52.998;9.068;2023-03-31T08:44:28;10.80;99.90
11617;DHT22;5864;52.998;9.068;2023-03-31T08:47:19;10.80;99.90
11617;DHT22;5864;52.998;9.068;2023-03-31T08:50:12;10.80;99.90
11617;DHT22;5864;52.998;9.068;2023-03-31T08:53:04;11.00;99.90
11617;DHT22;5864;52.998;9.068;2023-03-31T08:55:51;11.00;99.90
11617;DHT22;5864;52.998;9.068;2023-03-31T08:58:40;11.10;99.90
11617;DHT22;5864;52.998;9.068;2023-03-31T09:01:32;11.10;99.90
11617;DHT22;5864;52.998;9.068;2023-03-31T09:04:35;11.00;99.90
11617;DHT22;5864;52.998;9.068;2023-03-31T09:07:33;10.90;99.90
11617;DHT22;5864;52.998;9.068;2023-03-31T09:13:55;10.90;99.90
11617;DHT22;5864;52.998;9.068;2023-03-31T09:16:46;10.90;99.90
11617;DHT22;5864;52.998;9.068;2023-03-31T09:19:37;10.90;99.90
11617;DHT22;5864;52.998;9.068;2023-03-31T09:22:28;10.90;99.90
11617;DHT22;5864;52.998;9.068;2023-03-31T09:25:20;10.90;99.90
11617;DHT22;5864;52.998;9.068;2023-03-31T09:28:13;10.90;99.90
11617;DHT22;5864;52.998;9.068;2023-03-31T09:31:10;12.30;99.90
11617;DHT22;5864;52.998;9.068;2023-03-31T09:33:59;10.90;99.90
11617;DHT22;5864;52.998;9.068;2023-03-31T09:36:45;11.00;99.90
11617;DHT22;5864;52.998;9.068;2023-03-31T09:39:31;12.10;99.90
11617;DHT22;5864;52.998;9.068;2023-03-31T09:42:18;10.80;99.90
11617;DHT22;5864;52.998;9.068;2023-03-31T09:45:05;11.10;99.90
11617;DHT22;5864;52.998;9.068;2023-03-31T09:47:52;10.90;99.90
11617;DHT22;5864;52.998;9.068;2023-03-31T09:50:42;10.90;99.90
11617;DHT22;5864;52.998;9.068;2023-03-31T09:53:34;10.90;99.90
11617;DHT22;5864;52.998;9.068;2023-03-31T09:56:33;10.90;99.90
11617;DHT22;5864;52.998;9.068;2023-03-31T09:59:22;8.70;99.90
11617;DHT22;5864;52.998;9.068;2023-03-31T10:02:26;10.90;99.90
11617;DHT22;5864;52.998;9.068;2023-03-31T10:05:22;10.90;99.90
11617;DHT22;5864;52.998;9.068;2023-03-31T10:08:26;10.90;99.90
11617;DHT22;5864;52.998;9.068;2023-03-31T10:11:12;11.00;99.90
11617;DHT22;5864;52.998;9.068;2023-03-31T10:14:01;10.90;99.90
11617;DHT22;5864;52.998;9.068;2023-03-31T10:16:52;11.00;99.90
11617;DHT22;5864;52.998;9.068;2023-03-31T10:19:46;11.00;99.90
11617;DHT22;5864;52.998;9.068;2023-03-31T10:22:33;11.40;99.90
11617;DHT22;5864;52.998;9.068;2023-03-31T10:25:27;11.20;99.90
11617;DHT22;5864;52.998;9.068;2023-03-31T10:28:17;12.10;99.90
11617;DHT22;5864;52.998;9.068;2023-03-31T10:31:03;11.20;99.90
11617;DHT22;5864;52.998;9.068;2023-03-31T10:33:51;11.20;99.90
11617;DHT22;5864;52.998;9.068;2023-03-31T10:36:37;11.30;99.90
11617;DHT22;5864;52.998;9.068;2023-03-31T10:39:29;11.30;99.90
11617;DHT22;5864;52.998;9.068;2023-03-31T10:42:20;11.30;99.90
11617;DHT22;5864;52.998;9.068;2023-03-31T10:45:12;11.30;99.90
11617;DHT22;5864;52.998;9.068;2023-03-31T10:47:59;11.20;99.90
11617;DHT22;5864;52.998;9.068;2023-03-31T10:50:47;11.30;99.90
11617;DHT22;5864;52.998;9.068;2023-03-31T10:53:39;11.30;99.90
11617;DHT22;5864;52.998;9.068;2023-03-31T10:56:35;12.40;99.90
11617;DHT22;5864;52.998;9.068;2023-03-31T10:59:34;11.30;99.90
11617;DHT22;5864;52.998;9.068;2023-03-31T11:02:53;11.30;99.90
11617;DHT22;5864;52.998;9.068;2023-03-31T11:05:47;11.40;99.90
11617;DHT22;5864;52.998;9.068;2023-03-31T11:08:44;13.70;99.90
11617;DHT22;5864;52.998;9.068;2023-03-31T11:11:51;11.40;99.90
11617;DHT22;5864;52.998;9.068;2023-03-31T11:14:49;11.40;99.90
11617;DHT22;5864;52.998;9.068;2023-03-31T11:17:49;11.40;99.90
11617;DHT22;5864;52.998;9.068;2023-03-31T11:20:44;11.40;99.90
11617;DHT22;5864;52.998;9.068;2023-03-31T11:23:40;12.00;99.90
11617;DHT22;5864;52.998;9.068;2023-03-31T11:26:32;11.70;99.90
11617;DHT22;5864;52.998;9.068;2023-03-31T11:29:30;11.80;99.90
11617;DHT22;5864;52.998;9.068;2023-03-31T11:32:31;12.10;99.90
11617;DHT22;5864;52.998;9.068;2023-03-31T11:35:36;12.50;99.90
11617;DHT22;5864;52.998;9.068;2023-03-31T11:38:43;12.70;99.90
11617;DHT22;5864;52.998;9.068;2023-03-31T11:41:34;12.90;99.90
11617;DHT22;5864;52.998;9.068;2023-03-31T11:44:22;13.00;99.90
11617;DHT22;5864;52.998;9.068;2023-03-31T11:47:13;13.10;99.90
11617;DHT22;5864;52.998;9.068;2023-03-31T11:50:08;13.40;99.90
11617;DHT22;5864;52.998;9.068;2023-03-31T11:52:58;13.50;99.90
11617;DHT22;5864;52.998;9.068;2023-03-31T11:55:47;13.60;99.90
11617;DHT22;5864;52.998;9.068;2023-03-31T11:58:36;13.70;99.90
11617;DHT22;5864;52.998;9.068;2023-03-31T12:01:26;13.80;99.90
11617;DHT22;5864;52.998;9.068;2023-03-31T12:04:23;13.90;99.90
11617;DHT22;5864;52.998;9.068;2023-03-31T12:07:22;14.20;99.90
11617;DHT22;5864;52.998;9.068;2023-03-31T12:10:17;14.60;99.90
11617;DHT22;5864;52.998;9.068;2023-03-31T12:13:25;14.70;99.90
11617;DHT22;5864;52.998;9.068;2023-03-31T12:16:18;14.90;99.90
11617;DHT22;5864;52.998;9.068;2023-03-31T12:19:10;14.70;99.90
11617;DHT22;5864;52.998;9.068;2023-03-31T12:22:04;14.50;99.90
11617;DHT22;5864;52.998;9.068;2023-03-31T12:24:52;14.70;99.90
11617;DHT22;5864;52.998;9.068;2023-03-31T12:27:39;14.80;99.90
11617;DHT22;5864;52.998;9.068;2023-03-31T12:30:30;15.00;99.90
11617;DHT22;5864;52.998;9.068;2023-03-31T12:33:23;14.90;99.90
11617;DHT22;5864;52.998;9.068;2023-03-31T12:36:20;15.00;99.90
11617;DHT22;5864;52.998;9.068;2023-03-31T12:39:17;14.50;99.90
11617;DHT22;5864;52.998;9.068;2023-03-31T12:42:32;14.40;99.90
11617;DHT22;5864;52.998;9.068;2023-03-31T12:45:28;14.60;99.90
11617;DHT22;5864;52.998;9.068;2023-03-31T12:48:42;14.50;99.90
11617;DHT22;5864;52.998;9.068;2023-03-31T12:51:57;14.20;99.90
11617;DHT22;5864;52.998;9.068;2023-03-31T12:55:17;14.10;99.90
11617;DHT22;5864;52.998;9.068;2023-03-31T13:02:10;13.70;99.90
11617;DHT22;5864;52.998;9.068;2023-03-31T13:08:53;13.30;99.90
11617;DHT22;5864;52.998;9.068;2023-03-31T13:11:40;13.10;99.90
11617;DHT22;5864;52.998;9.068;2023-03-31T13:14:30;13.20;99.90
11617;DHT22;5864;52.998;9.068;2023-03-31T13:17:25;13.30;99.90
11617;DHT22;5864;52.998;9.068;2023-03-31T13:20:22;13.30;99.90
11617;DHT22;5864;52.998;9.068;2023-03-31T13:23:18;13.60;99.90
11617;DHT22;5864;52.998;9.068;2023-03-31T13:26:04;13.90;99.90
11617;DHT22;5864;52.998;9.068;2023-03-31T13:29:08;14.00;99.90
11617;DHT22;5864;52.998;9.068;2023-03-31T13:32:16;14.00;99.90
11617;DHT22;5864;52.998;9.068;2023-03-31T13:35:06;14.00;99.90
11617;DHT22;5864;52.998;9.068;2023-03-31T13:38:06;13.90;99.90
11617;DHT22;5864;52.998;9.068;2023-03-31T13:41:15;14.00;99.90
11617;DHT22;5864;52.998;9.068;2023-03-31T13:44:27;14.10;99.90
11617;DHT22;5864;52.998;9.068;2023-03-31T13:47:47;14.20;99.90
11617;DHT22;5864;52.998;9.068;2023-03-31T13:51:12;14.30;99.90
11617;DHT22;5864;52.998;9.068;2023-03-31T13:58:11;14.60;99.90
11617;DHT22;5864;52.998;9.068;2023-03-31T14:01:14;14.90;99.90
11617;DHT22;5864;52.998;9.068;2023-03-31T14:04:14;15.20;99.90
11617;DHT22;5864;52.998;9.068;2023-03-31T14:07:08;15.50;99.90
11617;DHT22;5864;52.998;9.068;2023-03-31T14:09:54;15.40;99.90
11617;DHT22;5864;52.998;9.068;2023-03-31T14:12:42;15.30;99.90
11617;DHT22;5864;52.998;9.068;2023-03-31T14:15:28;15.30;99.90
11617;DHT22;5864;52.998;9.068;2023-03-31T14:18:17;15.00;99.90
11617;DHT22;5864;52.998;9.068;2023-03-31T14:21:12;14.80;99.90
11617;DHT22;5864;52.998;9.068;2023-03-31T14:24:09;14.60;99.90
11617;DHT22;5864;52.998;9.068;2023-03-31T14:27:03;14.60;99.90
11617;DHT22;5864;52.998;9.068;2023-03-31T14:29:56;14.40;99.90
11617;DHT22;5864;52.998;9.068;2023-03-31T14:32:48;14.30;99.90
11617;DHT22;5864;52.998;9.068;2023-03-31T14:35:43;14.10;99.90
11617;DHT22;5864;52.998;9.068;2023-03-31T14:38:36;14.00;99.90
11617;DHT22;5864;52.998;9.068;2023-03-31T14:41:24;14.00;99.90
11617;DHT22;5864;52.998;9.068;2023-03-31T14:44:14;14.00;99.90
11617;DHT22;5864;52.998;9.068;2023-03-31T14:47:00;13.80;99.90
11617;DHT22;5864;52.998;9.068;2023-03-31T14:49:45;13.70;99.90
11617;DHT22;5864;52.998;9.068;2023-03-31T14:52:31;13.70;99.90
11617;DHT22;5864;52.998;9.068;2023-03-31T14:55:22;13.80;99.90
11617;DHT22;5864;52.998;9.068;2023-03-31T14:58:12;13.90;99.90
11617;DHT22;5864;52.998;9.068;2023-03-31T15:01:00;14.10;99.90
11617;DHT22;5864;52.998;9.068;2023-03-31T15:03:46;14.20;99.90
11617;DHT22;5864;52.998;9.068;2023-03-31T15:06:32;14.40;99.90
11617;DHT22;5864;52.998;9.068;2023-03-31T15:09:21;14.60;99.90
11617;DHT22;5864;52.998;9.068;2023-03-31T15:12:11;14.70;99.90
11617;DHT22;5864;52.998;9.068;2023-03-31T15:15:02;14.70;99.90
11617;DHT22;5864;52.998;9.068;2023-03-31T15:17:48;14.50;99.90
11617;DHT22;5864;52.998;9.068;2023-03-31T15:20:36;14.30;99.90
11617;DHT22;5864;52.998;9.068;2023-03-31T15:23:23;14.20;99.90
11617;DHT22;5864;52.998;9.068;2023-03-31T15:26:10;14.00;99.90
11617;DHT22;5864;52.998;9.068;2023-03-31T15:29:02;14.00;99.90
11617;DHT22;5864;52.998;9.068;2023-03-31T15:31:50;13.90;99.90
11617;DHT22;5864;52.998;9.068;2023-03-31T15:34:42;13.60;99.90
11617;DHT22;5864;52.998;9.068;2023-03-31T15:37:33;13.80;99.90
11617;DHT22;5864;52.998;9.068;2023-03-31T15:40:22;13.80;99.90
11617;DHT22;5864;52.998;9.068;2023-03-31T15:43:14;13.80;99.90
11617;DHT22;5864;52.998;9.068;2023-03-31T15:46:00;13.90;99.90
11617;DHT22;5864;52.998;9.068;2023-03-31T15:48:51;13.90;99.90
11617;DHT22;5864;52.998;9.068;2023-03-31T15:51:39;13.70;99.90
11617;DHT22;5864;52.998;9.068;2023-03-31T15:54:30;13.70;99.90
11617;DHT22;5864;52.998;9.068;2023-03-31T15:57:16;13.70;99.90
11617;DHT22;5864;52.998;9.068;2023-03-31T16:00:04;13.60;99.90
11617;DHT22;5864;52.998;9.068;2023-03-31T16:02:51;13.50;99.90
11617;DHT22;5864;52.998;9.068;2023-03-31T16:05:40;13.50;99.90
11617;DHT22;5864;52.998;9.068;2023-03-31T16:08:28;13.50;99.90
11617;DHT22;5864;52.998;9.068;2023-03-31T16:11:18;13.10;99.90
11617;DHT22;5864;52.998;9.068;2023-03-31T16:14:09;13.10;99.90
11617;DHT22;5864;52.998;9.068;2023-03-31T16:17:01;13.10;99.90
11617;DHT22;5864;52.998;9.068;2023-03-31T16:19:49;12.90;99.90
11617;DHT22;5864;52.998;9.068;2023-03-31T16:22:41;13.10;99.90
11617;DHT22;5864;52.998;9.068;2023-03-31T16:25:29;12.70;99.90
11617;DHT22;5864;52.998;9.068;2023-03-31T16:28:19;12.80;99.90
11617;DHT22;5864;52.998;9.068;2023-03-31T16:31:30;12.70;99.90
11617;DHT22;5864;52.998;9.068;2023-03-31T16:34:17;12.60;99.90
11617;DHT22;5864;52.998;9.068;2023-03-31T16:37:03;12.40;99.90
11617;DHT22;5864;52.998;9.068;2023-03-31T16:39:55;12.30;99.90
11617;DHT22;5864;52.998;9.068;2023-03-31T16:42:40;12.30;99.90
11617;DHT22;5864;52.998;9.068;2023-03-31T16:45:25;12.30;99.90
11617;DHT22;5864;52.998;9.068;2023-03-31T16:48:13;12.30;99.90
11617;DHT22;5864;52.998;9.068;2023-03-31T16:50:59;12.20;99.90
11617;DHT22;5864;52.998;9.068;2023-03-31T16:53:46;12.20;99.90
11617;DHT22;5864;52.998;9.068;2023-03-31T16:56:32;12.20;99.90
11617;DHT22;5864;52.998;9.068;2023-03-31T16:59:18;12.20;99.90
11617;DHT22;5864;52.998;9.068;2023-03-31T17:02:03;12.10;99.90
11617;DHT22;5864;52.998;9.068;2023-03-31T17:04:50;13.70;99.90
11617;DHT22;5864;52.998;9.068;2023-03-31T17:07:35;12.20;99.90
11617;DHT22;5864;52.998;9.068;2023-03-31T17:10:21;12.10;99.90
11617;DHT22;5864;52.998;9.068;2023-03-31T17:13:08;12.00;99.90
11617;DHT22;5864;52.998;9.068;2023-03-31T17:15:53;12.00;99.90
11617;DHT22;5864;52.998;9.068;2023-03-31T17:18:39;12.00;99.90
11617;DHT22;5864;52.998;9.068;2023-03-31T17:21:27;11.90;99.90
11617;DHT22;5864;52.998;9.068;2023-03-31T17:24:13;11.90;99.90
11617;DHT22;5864;52.998;9.068;2023-03-31T17:26:58;11.70;99.90
11617;DHT22;5864;52.998;9.068;2023-03-31T17:29:44;11.70;99.90
11617;DHT22;5864;52.998;9.068;2023-03-31T17:32:30;11.60;99.90
11617;DHT22;5864;52.998;9.068;2023-03-31T17:35:15;11.70;99.90
11617;DHT22;5864;52.998;9.068;2023-03-31T17:38:05;11.60;99.90
11617;DHT22;5864;52.998;9.068;2023-03-31T17:40:52;11.60;99.90
11617;DHT22;5864;52.998;9.068;2023-03-31T17:43:38;11.60;99.90
11617;DHT22;5864;52.998;9.068;2023-03-31T17:46:24;11.50;99.90
11617;DHT22;5864;52.998;9.068;2023-03-31T17:49:10;11.50;99.90
11617;DHT22;5864;52.998;9.068;2023-03-31T17:51:56;11.40;99.90
11617;DHT22;5864;52.998;9.068;2023-03-31T17:54:43;11.30;99.90
11617;DHT22;5864;52.998;9.068;2023-03-31T17:57:29;11.30;99.90
11617;DHT22;5864;52.998;9.068;2023-03-31T18:00:15;11.20;99.90
11617;DHT22;5864;52.998;9.068;2023-03-31T18:03:01;11.20;99.90
11617;DHT22;5864;52.998;9.068;2023-03-31T18:05:47;11.10;99.90
11617;DHT22;5864;52.998;9.068;2023-03-31T18:08:33;11.10;99.90
11617;DHT22;5864;52.998;9.068;2023-03-31T18:11:20;11.00;99.90
11617;DHT22;5864;52.998;9.068;2023-03-31T18:14:06;12.30;99.90
11617;DHT22;5864;52.998;9.068;2023-03-31T18:16:52;12.20;99.90
11617;DHT22;5864;52.998;9.068;2023-03-31T18:19:38;10.80;99.90
11617;DHT22;5864;52.998;9.068;2023-03-31T18:22:24;12.40;99.90
11617;DHT22;5864;52.998;9.068;2023-03-31T18:25:10;10.80;99.90
11617;DHT22;5864;52.998;9.068;2023-03-31T18:27:58;10.90;99.90
11617;DHT22;5864;52.998;9.068;2023-03-31T18:30:44;10.70;99.90
11617;DHT22;5864;52.998;9.068;2023-03-31T18:33:31;10.70;99.90
11617;DHT22;5864;52.998;9.068;2023-03-31T18:36:18;10.60;99.90
11617;DHT22;5864;52.998;9.068;2023-03-31T18:39:04;10.20;99.90
11617;DHT22;5864;52.998;9.068;2023-03-31T18:41:50;11.40;99.90
11617;DHT22;5864;52.998;9.068;2023-03-31T18:44:38;14.00;99.90